Cusick, Washington
Current Conditions -  °F | °C
As of 6:53 AM on Friday 19 Dec 2014 (Local Time) from KDEW Reporting Station
Light Rain Light Rain  
Wind Chill: 32°   Ceiling: 1600
Heat Index: 37°   Visibility: 4mi
Dew Point: 37°   Wind: 6mph
Humidity: 100%   Direction: 60°ENE
Pressure: 29.87"   Gusts: NA
Location:  48.34°N, 117.3°W
Report Text: KDEW 191453Z AUTO 06005KT 4SM -RA BR BKN016 OVC023 03/03 A2987 RMK AO2 UPB13E18 SLP129 P0002 60016 T00280028 58006
Loading
Personal Weather Stations






























Interactive Weather Map New forecast layout! Learn more

10-Day Weather Forecast

Advertisements
Track Severe Weather on mobile